PWSweather.com
Personal Weather Stations
Station Observations
CANDIOTINO
Barrio Candioti Norte, Santa FeAR 3000

Barrio Candioti NorteSanta FeAR 3000

Lat: -31.632778, Lon: -60.695556

Elevation: 69

Station Type: WH-1081

http://www.eltiempoensantafe.com.ar

Latest ConditionsUpdated 9:45:01 AM GMT-03:57 Monday, Sep 24, 2018
Currently Today's Max Today's Min Today's Average
Temperature 67.1°F19.5°C 71.4°F21.9°C 63.0°F17.2°C 66.6°F19.2°C
Dew Point 45.6°F7.6°C 53.6°F12.0°C 41.5°F5.3°C 46.2°F7.9°C
Winds 4.5 mph E7.2 kmh E 15.9 mph -25.6 kmh - - 8.5 mph 13.7 kmh
Wind Gusts 9.2 mph14.8 kmh 28.2 mph45.4 kmh - -
Humidity 46% 54% 38% 48%
Pressure 29.99 in1015.6 mb 29.99 in1015.6 mb 29.75 in1007.5 mb -
Hour Temp Dew Point Humidity Winds Wind Gusts Pressure Precip Precip Rate Daily Precip Total
09:45 AM 67.1°F19.5°C 45.6°F7.6°C 46% 4.5 mph E7.2 kmh E 9.2 mph14.8 kmh 29.99 in1015.6 mb 0.00 in0.0 mm 0.00 in0.0 mm 0.00 in0.0 mm
09:30 AM 66.9°F19.4°C 46.1°F7.8°C 47% 2.2 mph E3.5 kmh E 6.9 mph11.1 kmh 29.99 in1015.6 mb 0.00 in0.0 mm 0.00 in0.0 mm 0.00 in0.0 mm
09:15 AM 66.4°F19.1°C 45.6°F7.6°C 47% 3.8 mph E6.1 kmh E 6.0 mph9.7 kmh 29.99 in1015.6 mb 0.00 in0.0 mm 0.00 in0.0 mm 0.00 in0.0 mm
09:00 AM 65.3°F18.5°C 46.2°F7.9°C 50% 4.5 mph ESE7.2 kmh ESE 9.2 mph14.8 kmh 29.97 in1014.9 mb 0.00 in0.0 mm 0.00 in0.0 mm 0.00 in0.0 mm
08:45 AM 64.2°F17.9°C 46.2°F7.9°C 52% 5.4 mph ESE8.7 kmh ESE 13.0 mph20.9 kmh 29.94 in1013.9 mb 0.00 in0.0 mm 0.00 in0.0 mm 0.00 in0.0 mm
08:30 AM 63.1°F17.3°C 45.7°F7.6°C 53% 4.5 mph E7.2 kmh E 13.0 mph20.9 kmh 29.92 in1013.2 mb 0.00 in0.0 mm 0.00 in0.0 mm 0.00 in0.0 mm
08:15 AM 63.1°F17.3°C 45.7°F7.6°C 53% 6.0 mph ESE9.7 kmh ESE 14.5 mph23.3 kmh 29.89 in1012.2 mb 0.00 in0.0 mm 0.00 in0.0 mm 0.00 in0.0 mm
08:00 AM 63.0°F17.2°C 45.6°F7.6°C 53% 8.3 mph E13.4 kmh E 16.8 mph27.0 kmh 29.86 in1011.2 mb 0.00 in0.0 mm 0.00 in0.0 mm 0.00 in0.0 mm
07:45 AM 63.0°F17.2°C 45.1°F7.3°C 52% 7.6 mph E12.2 kmh E 19.7 mph31.7 kmh 29.86 in1011.2 mb 0.00 in0.0 mm 0.00 in0.0 mm 0.00 in0.0 mm
07:30 AM 63.0°F17.2°C 45.6°F7.6°C 53% 8.3 mph ESE13.4 kmh ESE 19.0 mph30.6 kmh 29.84 in1010.5 mb 0.00 in0.0 mm 0.00 in0.0 mm 0.00 in0.0 mm
07:15 AM 63.0°F17.2°C 45.1°F7.3°C 52% 6.9 mph ESE11.1 kmh ESE 18.3 mph29.5 kmh 29.83 in1010.2 mb 0.00 in0.0 mm 0.00 in0.0 mm 0.00 in0.0 mm
07:00 AM 63.0°F17.2°C 44.6°F7.0°C 51% 9.8 mph SE15.8 kmh SE 24.4 mph39.3 kmh 29.81 in1009.5 mb 0.00 in0.0 mm 0.00 in0.0 mm 0.00 in0.0 mm
06:45 AM 63.1°F17.3°C 44.7°F7.1°C 51% 9.8 mph SE15.8 kmh SE 24.4 mph39.3 kmh 29.78 in1008.5 mb 0.00 in0.0 mm 0.00 in0.0 mm 0.00 in0.0 mm
06:30 AM 63.5°F17.5°C 45.1°F7.3°C 51% 6.0 mph SE9.7 kmh SE 18.3 mph29.5 kmh 29.79 in1008.8 mb 0.00 in0.0 mm 0.00 in0.0 mm 0.00 in0.0 mm
06:15 AM 63.7°F17.6°C 45.2°F7.3°C 51% 7.6 mph SE12.2 kmh SE 15.9 mph25.6 kmh 29.78 in1008.5 mb 0.00 in0.0 mm 0.00 in0.0 mm 0.00 in0.0 mm
06:00 AM 63.7°F17.6°C 45.7°F7.6°C 52% 5.4 mph SSE8.7 kmh SSE 15.2 mph24.5 kmh 29.78 in1008.5 mb 0.00 in0.0 mm 0.00 in0.0 mm 0.00 in0.0 mm
05:45 AM 63.9°F17.7°C 46.4°F8.0°C 53% 6.0 mph SE9.7 kmh SE 20.6 mph33.2 kmh 29.76 in1007.8 mb 0.00 in0.0 mm 0.00 in0.0 mm 0.00 in0.0 mm
05:30 AM 64.2°F17.9°C 46.7°F8.2°C 53% 10.7 mph SE17.2 kmh SE 28.2 mph45.4 kmh 29.75 in1007.5 mb 0.00 in0.0 mm 0.00 in0.0 mm 0.00 in0.0 mm
05:15 AM 64.9°F18.3°C 46.4°F8.0°C 51% 13.6 mph SE21.9 kmh SE 25.9 mph41.7 kmh 29.76 in1007.8 mb 0.00 in0.0 mm 0.00 in0.0 mm 0.00 in0.0 mm
05:00 AM 65.5°F18.6°C 45.3°F7.4°C 48% 9.8 mph SSE15.8 kmh SSE 21.3 mph34.3 kmh 29.78 in1008.5 mb 0.00 in0.0 mm 0.00 in0.0 mm 0.00 in0.0 mm
04:45 AM 66.0°F18.9°C 45.2°F7.3°C 47% 9.2 mph SE14.8 kmh SE 17.4 mph28.0 kmh 29.79 in1008.8 mb 0.00 in0.0 mm 0.00 in0.0 mm 0.00 in0.0 mm
04:30 AM 66.4°F19.1°C 44.4°F6.9°C 45% 9.8 mph SE15.8 kmh SE 22.8 mph36.7 kmh 29.77 in1008.1 mb 0.00 in0.0 mm 0.00 in0.0 mm 0.00 in0.0 mm
04:15 AM 66.6°F19.2°C 44.0°F6.7°C 44% 9.2 mph SE14.8 kmh SE 18.3 mph29.5 kmh 29.78 in1008.5 mb 0.00 in0.0 mm 0.00 in0.0 mm 0.00 in0.0 mm
04:00 AM 66.7°F19.3°C 44.2°F6.8°C 44% 9.2 mph SE14.8 kmh SE 19.7 mph31.7 kmh 29.78 in1008.5 mb 0.00 in0.0 mm 0.00 in0.0 mm 0.00 in0.0 mm
03:45 AM 67.5°F19.7°C 43.6°F6.4°C 42% 7.6 mph SE12.2 kmh SE 19.7 mph31.7 kmh 29.78 in1008.5 mb 0.00 in0.0 mm 0.00 in0.0 mm 0.00 in0.0 mm
03:30 AM 68.0°F20.0°C 41.5°F5.3°C 38% 10.7 mph SE17.2 kmh SE 27.3 mph43.9 kmh 29.78 in1008.5 mb 0.00 in0.0 mm 0.00 in0.0 mm 0.00 in0.0 mm
03:15 AM 68.5°F20.3°C 41.9°F5.5°C 38% 15.9 mph SE25.6 kmh SE 22.8 mph36.7 kmh 29.77 in1008.1 mb 0.00 in0.0 mm 0.00 in0.0 mm 0.00 in0.0 mm
03:00 AM 68.9°F20.5°C 42.9°F6.1°C 39% 10.7 mph SSE17.2 kmh SSE 22.8 mph36.7 kmh 29.78 in1008.5 mb 0.00 in0.0 mm 0.00 in0.0 mm 0.00 in0.0 mm
02:45 AM 69.1°F20.6°C 44.4°F6.9°C 41% 9.8 mph SE15.8 kmh SE 18.3 mph29.5 kmh 29.78 in1008.5 mb 0.00 in0.0 mm 0.00 in0.0 mm 0.00 in0.0 mm
02:30 AM 69.3°F20.7°C 45.8°F7.7°C 43% 11.4 mph SE18.3 kmh SE 22.8 mph36.7 kmh 29.78 in1008.5 mb 0.00 in0.0 mm 0.00 in0.0 mm 0.00 in0.0 mm
02:15 AM 69.4°F20.8°C 46.6°F8.1°C 44% 13.0 mph SSE20.9 kmh SSE 23.5 mph37.8 kmh 29.78 in1008.5 mb 0.00 in0.0 mm 0.00 in0.0 mm 0.00 in0.0 mm
02:00 AM 69.6°F20.9°C 47.9°F8.8°C 46% 9.8 mph SE15.8 kmh SE 21.3 mph34.3 kmh 29.79 in1008.8 mb 0.00 in0.0 mm 0.00 in0.0 mm 0.00 in0.0 mm
01:45 AM 69.8°F21.0°C 49.2°F9.6°C 48% 5.4 mph ESE8.7 kmh ESE 16.8 mph27.0 kmh 29.79 in1008.8 mb 0.00 in0.0 mm 0.00 in0.0 mm 0.00 in0.0 mm
01:30 AM 70.0°F21.1°C 51.6°F10.9°C 52% 12.1 mph SE19.5 kmh SE 19.0 mph30.6 kmh 29.79 in1008.8 mb 0.00 in0.0 mm 0.00 in0.0 mm 0.00 in0.0 mm
01:15 AM 70.5°F21.4°C 51.0°F10.6°C 50% 9.2 mph SE14.8 kmh SE 24.4 mph39.3 kmh 29.78 in1008.5 mb 0.00 in0.0 mm 0.00 in0.0 mm 0.00 in0.0 mm
01:00 AM 70.9°F21.6°C 49.7°F9.8°C 47% 9.8 mph SSE15.8 kmh SSE 19.7 mph31.7 kmh 29.79 in1008.8 mb 0.00 in0.0 mm 0.00 in0.0 mm 0.00 in0.0 mm
12:45 AM 71.2°F21.8°C 48.2°F9.0°C 44% 9.8 mph SE15.8 kmh SE 19.7 mph31.7 kmh 29.78 in1008.5 mb 0.00 in0.0 mm 0.00 in0.0 mm 0.00 in0.0 mm
12:30 AM 71.2°F21.8°C 49.4°F9.7°C 46% 9.2 mph SE14.8 kmh SE 22.1 mph35.6 kmh 29.78 in1008.5 mb 0.00 in0.0 mm 0.00 in0.0 mm 0.00 in0.0 mm
12:15 AM 71.4°F21.9°C 50.2°F10.1°C 47% 9.8 mph ESE15.8 kmh ESE 23.5 mph37.8 kmh 29.78 in1008.5 mb 0.00 in0.0 mm 0.00 in0.0 mm 0.00 in0.0 mm
12:00 AM 71.1°F21.7°C 53.6°F12.0°C 54% 7.6 mph SE12.2 kmh SE 22.1 mph35.6 kmh 29.77 in1008.1 mb 0.00 in0.0 mm 0.00 in0.0 mm 0.00 in0.0 mm